sensor_id;sensor_type;location;lat;lon;timestamp;temperature;humidity
2825;DHT22;1420;51.324;12.344;2023-08-07T00:01:15;15.90;99.90
2825;DHT22;1420;51.324;12.344;2023-08-07T00:03:42;15.60;99.90
2825;DHT22;1420;51.324;12.344;2023-08-07T00:06:09;15.50;99.90
2825;DHT22;1420;51.324;12.344;2023-08-07T00:08:36;15.60;99.90
2825;DHT22;1420;51.324;12.344;2023-08-07T00:11:05;15.30;99.90
2825;DHT22;1420;51.324;12.344;2023-08-07T00:13:31;15.50;99.90
2825;DHT22;1420;51.324;12.344;2023-08-07T00:15:59;15.20;99.90
2825;DHT22;1420;51.324;12.344;2023-08-07T00:18:27;15.10;99.90
2825;DHT22;1420;51.324;12.344;2023-08-07T00:20:54;15.30;99.90
2825;DHT22;1420;51.324;12.344;2023-08-07T00:25:52;15.40;99.90
2825;DHT22;1420;51.324;12.344;2023-08-07T00:28:19;15.60;99.90
2825;DHT22;1420;51.324;12.344;2023-08-07T00:30:47;15.50;99.90
2825;DHT22;1420;51.324;12.344;2023-08-07T00:33:15;15.50;99.90
2825;DHT22;1420;51.324;12.344;2023-08-07T00:35:43;15.40;99.90
2825;DHT22;1420;51.324;12.344;2023-08-07T00:38:10;15.30;99.90
2825;DHT22;1420;51.324;12.344;2023-08-07T00:40:38;15.80;99.90
2825;DHT22;1420;51.324;12.344;2023-08-07T00:43:05;15.80;99.90
2825;DHT22;1420;51.324;12.344;2023-08-07T00:45:35;15.70;99.90
2825;DHT22;1420;51.324;12.344;2023-08-07T00:48:01;15.60;99.90
2825;DHT22;1420;51.324;12.344;2023-08-07T00:50:29;15.70;99.90
2825;DHT22;1420;51.324;12.344;2023-08-07T00:52:57;15.70;99.90
2825;DHT22;1420;51.324;12.344;2023-08-07T00:55:25;15.50;99.90
2825;DHT22;1420;51.324;12.344;2023-08-07T00:57:53;15.70;99.90
2825;DHT22;1420;51.324;12.344;2023-08-07T01:00:21;15.70;99.90
2825;DHT22;1420;51.324;12.344;2023-08-07T01:02:49;15.60;99.90
2825;DHT22;1420;51.324;12.344;2023-08-07T01:05:17;15.80;99.90
2825;DHT22;1420;51.324;12.344;2023-08-07T01:07:47;15.70;99.90
2825;DHT22;1420;51.324;12.344;2023-08-07T01:10:13;15.50;99.90
2825;DHT22;1420;51.324;12.344;2023-08-07T01:12:45;15.40;99.90
2825;DHT22;1420;51.324;12.344;2023-08-07T01:15:13;15.40;99.90
2825;DHT22;1420;51.324;12.344;2023-08-07T01:17:40;15.40;99.90
2825;DHT22;1420;51.324;12.344;2023-08-07T01:20:07;15.50;99.90
2825;DHT22;1420;51.324;12.344;2023-08-07T01:22:34;15.30;99.90
2825;DHT22;1420;51.324;12.344;2023-08-07T01:25:02;15.40;99.90
2825;DHT22;1420;51.324;12.344;2023-08-07T01:27:35;15.40;99.90
2825;DHT22;1420;51.324;12.344;2023-08-07T01:32:41;15.30;99.90
2825;DHT22;1420;51.324;12.344;2023-08-07T01:35:06;15.50;99.90
2825;DHT22;1420;51.324;12.344;2023-08-07T01:37:34;15.50;99.90
2825;DHT22;1420;51.324;12.344;2023-08-07T01:40:01;15.50;99.90
2825;DHT22;1420;51.324;12.344;2023-08-07T01:42:28;15.40;99.90
2825;DHT22;1420;51.324;12.344;2023-08-07T01:44:55;15.30;99.90
2825;DHT22;1420;51.324;12.344;2023-08-07T01:47:22;15.40;99.90
2825;DHT22;1420;51.324;12.344;2023-08-07T01:49:50;15.30;99.90
2825;DHT22;1420;51.324;12.344;2023-08-07T01:52:17;15.60;99.90
2825;DHT22;1420;51.324;12.344;2023-08-07T01:54:45;15.50;99.90
2825;DHT22;1420;51.324;12.344;2023-08-07T01:57:13;15.30;99.90
2825;DHT22;1420;51.324;12.344;2023-08-07T01:59:41;15.50;99.90
2825;DHT22;1420;51.324;12.344;2023-08-07T02:02:09;15.30;99.90
2825;DHT22;1420;51.324;12.344;2023-08-07T02:04:37;15.20;99.90
2825;DHT22;1420;51.324;12.344;2023-08-07T02:07:05;15.10;99.90
2825;DHT22;1420;51.324;12.344;2023-08-07T02:09:33;15.20;99.90
2825;DHT22;1420;51.324;12.344;2023-08-07T02:12:00;15.10;99.90
2825;DHT22;1420;51.324;12.344;2023-08-07T02:14:27;15.50;99.90
2825;DHT22;1420;51.324;12.344;2023-08-07T02:16:54;15.30;99.90
2825;DHT22;1420;51.324;12.344;2023-08-07T02:19:21;15.30;99.90
2825;DHT22;1420;51.324;12.344;2023-08-07T02:21:49;15.30;99.90
2825;DHT22;1420;51.324;12.344;2023-08-07T02:24:17;15.10;99.90
2825;DHT22;1420;51.324;12.344;2023-08-07T02:26:45;15.20;99.90
2825;DHT22;1420;51.324;12.344;2023-08-07T02:29:13;15.10;99.90
2825;DHT22;1420;51.324;12.344;2023-08-07T02:31:41;15.00;99.90
2825;DHT22;1420;51.324;12.344;2023-08-07T02:34:09;14.90;99.90
2825;DHT22;1420;51.324;12.344;2023-08-07T02:36:37;15.00;99.90
2825;DHT22;1420;51.324;12.344;2023-08-07T02:39:06;14.90;99.90
2825;DHT22;1420;51.324;12.344;2023-08-07T02:41:32;14.80;99.90
2825;DHT22;1420;51.324;12.344;2023-08-07T02:43:59;15.00;99.90
2825;DHT22;1420;51.324;12.344;2023-08-07T02:46:27;15.30;99.90
2825;DHT22;1420;51.324;12.344;2023-08-07T02:48:55;15.20;99.90
2825;DHT22;1420;51.324;12.344;2023-08-07T02:51:23;15.10;99.90
2825;DHT22;1420;51.324;12.344;2023-08-07T02:53:51;15.20;99.90
2825;DHT22;1420;51.324;12.344;2023-08-07T02:56:19;15.10;99.90
2825;DHT22;1420;51.324;12.344;2023-08-07T02:58:47;15.30;99.90
2825;DHT22;1420;51.324;12.344;2023-08-07T03:01:15;15.60;99.90
2825;DHT22;1420;51.324;12.344;2023-08-07T03:03:43;15.80;99.90
2825;DHT22;1420;51.324;12.344;2023-08-07T03:06:11;15.60;99.90
2825;DHT22;1420;51.324;12.344;2023-08-07T03:08:39;15.40;99.90
2825;DHT22;1420;51.324;12.344;2023-08-07T03:11:07;15.30;99.90
2825;DHT22;1420;51.324;12.344;2023-08-07T03:13:35;15.30;99.90
2825;DHT22;1420;51.324;12.344;2023-08-07T03:16:04;15.30;99.90
2825;DHT22;1420;51.324;12.344;2023-08-07T03:18:31;15.30;99.90
2825;DHT22;1420;51.324;12.344;2023-08-07T03:20:58;15.30;99.90
2825;DHT22;1420;51.324;12.344;2023-08-07T03:23:25;15.30;99.90
2825;DHT22;1420;51.324;12.344;2023-08-07T03:26:08;15.30;99.90
2825;DHT22;1420;51.324;12.344;2023-08-07T03:28:35;15.20;99.90
2825;DHT22;1420;51.324;12.344;2023-08-07T03:31:03;15.10;99.90
2825;DHT22;1420;51.324;12.344;2023-08-07T03:33:31;15.20;99.90
2825;DHT22;1420;51.324;12.344;2023-08-07T03:35:59;15.40;99.90
2825;DHT22;1420;51.324;12.344;2023-08-07T03:38:27;15.40;99.90
2825;DHT22;1420;51.324;12.344;2023-08-07T03:40:55;15.20;99.90
2825;DHT22;1420;51.324;12.344;2023-08-07T03:43:23;15.10;99.90
2825;DHT22;1420;51.324;12.344;2023-08-07T03:45:55;15.10;99.90
2825;DHT22;1420;51.324;12.344;2023-08-07T03:48:22;15.10;99.90
2825;DHT22;1420;51.324;12.344;2023-08-07T03:50:49;15.20;99.90
2825;DHT22;1420;51.324;12.344;2023-08-07T03:53:16;15.30;99.90
2825;DHT22;1420;51.324;12.344;2023-08-07T03:55:43;15.20;99.90
2825;DHT22;1420;51.324;12.344;2023-08-07T03:58:10;15.20;99.90
2825;DHT22;1420;51.324;12.344;2023-08-07T04:00:38;14.90;99.90
2825;DHT22;1420;51.324;12.344;2023-08-07T04:03:05;14.90;99.90
2825;DHT22;1420;51.324;12.344;2023-08-07T04:05:33;14.90;99.90
2825;DHT22;1420;51.324;12.344;2023-08-07T04:07:59;15.00;99.90
2825;DHT22;1420;51.324;12.344;2023-08-07T04:10:26;14.90;99.90
2825;DHT22;1420;51.324;12.344;2023-08-07T04:12:54;15.10;99.90
2825;DHT22;1420;51.324;12.344;2023-08-07T04:15:21;15.20;99.90
2825;DHT22;1420;51.324;12.344;2023-08-07T04:17:49;15.30;99.90
2825;DHT22;1420;51.324;12.344;2023-08-07T04:20:17;15.30;99.90
2825;DHT22;1420;51.324;12.344;2023-08-07T04:22:45;15.40;99.90
2825;DHT22;1420;51.324;12.344;2023-08-07T04:25:13;15.00;99.90
2825;DHT22;1420;51.324;12.344;2023-08-07T04:27:40;14.90;99.90
2825;DHT22;1420;51.324;12.344;2023-08-07T04:30:07;15.00;99.90
2825;DHT22;1420;51.324;12.344;2023-08-07T04:32:35;15.10;99.90
2825;DHT22;1420;51.324;12.344;2023-08-07T04:35:02;15.10;99.90
2825;DHT22;1420;51.324;12.344;2023-08-07T04:37:29;15.40;99.90
2825;DHT22;1420;51.324;12.344;2023-08-07T04:39:57;15.20;99.90
2825;DHT22;1420;51.324;12.344;2023-08-07T04:42:25;15.10;99.90
2825;DHT22;1420;51.324;12.344;2023-08-07T04:44:53;15.10;99.90
2825;DHT22;1420;51.324;12.344;2023-08-07T04:47:22;15.00;99.90
2825;DHT22;1420;51.324;12.344;2023-08-07T04:49:49;15.00;99.90
2825;DHT22;1420;51.324;12.344;2023-08-07T04:52:16;15.40;99.90
2825;DHT22;1420;51.324;12.344;2023-08-07T04:54:44;15.20;99.90
2825;DHT22;1420;51.324;12.344;2023-08-07T04:57:12;15.10;99.90
2825;DHT22;1420;51.324;12.344;2023-08-07T04:59:39;15.40;99.90
2825;DHT22;1420;51.324;12.344;2023-08-07T05:02:06;15.50;99.90
2825;DHT22;1420;51.324;12.344;2023-08-07T05:04:33;15.70;99.90
2825;DHT22;1420;51.324;12.344;2023-08-07T05:07:00;15.50;99.90
2825;DHT22;1420;51.324;12.344;2023-08-07T05:09:28;15.50;99.90
2825;DHT22;1420;51.324;12.344;2023-08-07T05:11:55;15.60;99.90
2825;DHT22;1420;51.324;12.344;2023-08-07T05:14:22;15.40;99.90
2825;DHT22;1420;51.324;12.344;2023-08-07T05:16:49;15.40;99.90
2825;DHT22;1420;51.324;12.344;2023-08-07T05:19:16;15.90;99.90
2825;DHT22;1420;51.324;12.344;2023-08-07T05:21:44;16.00;99.90
2825;DHT22;1420;51.324;12.344;2023-08-07T05:24:11;16.00;99.90
2825;DHT22;1420;51.324;12.344;2023-08-07T05:26:39;15.50;99.90
2825;DHT22;1420;51.324;12.344;2023-08-07T05:29:08;15.50;99.90
2825;DHT22;1420;51.324;12.344;2023-08-07T05:31:35;15.40;99.90
2825;DHT22;1420;51.324;12.344;2023-08-07T05:34:02;15.50;99.90
2825;DHT22;1420;51.324;12.344;2023-08-07T05:36:29;15.60;99.90
2825;DHT22;1420;51.324;12.344;2023-08-07T05:38:57;15.50;99.90
2825;DHT22;1420;51.324;12.344;2023-08-07T05:41:24;15.80;99.90
2825;DHT22;1420;51.324;12.344;2023-08-07T05:43:51;15.40;99.90
2825;DHT22;1420;51.324;12.344;2023-08-07T05:46:18;15.50;99.90
2825;DHT22;1420;51.324;12.344;2023-08-07T05:48:45;15.70;99.90
2825;DHT22;1420;51.324;12.344;2023-08-07T05:51:12;16.00;99.90
2825;DHT22;1420;51.324;12.344;2023-08-07T05:53:40;15.90;99.90
2825;DHT22;1420;51.324;12.344;2023-08-07T05:56:08;15.60;99.90
2825;DHT22;1420;51.324;12.344;2023-08-07T05:58:36;15.70;99.90
2825;DHT22;1420;51.324;12.344;2023-08-07T06:01:04;15.90;99.90
2825;DHT22;1420;51.324;12.344;2023-08-07T06:03:32;15.80;99.90
2825;DHT22;1420;51.324;12.344;2023-08-07T06:06:00;16.00;99.90
2825;DHT22;1420;51.324;12.344;2023-08-07T06:08:27;15.90;99.90
2825;DHT22;1420;51.324;12.344;2023-08-07T06:10:55;15.90;99.90
2825;DHT22;1420;51.324;12.344;2023-08-07T06:13:22;15.80;99.90
2825;DHT22;1420;51.324;12.344;2023-08-07T06:15:49;15.80;99.90
2825;DHT22;1420;51.324;12.344;2023-08-07T06:18:16;16.00;99.90
2825;DHT22;1420;51.324;12.344;2023-08-07T06:20:44;16.00;99.90
2825;DHT22;1420;51.324;12.344;2023-08-07T06:23:12;15.80;99.90
2825;DHT22;1420;51.324;12.344;2023-08-07T06:25:39;15.80;99.90
2825;DHT22;1420;51.324;12.344;2023-08-07T06:28:06;15.90;99.90
2825;DHT22;1420;51.324;12.344;2023-08-07T06:30:33;15.80;99.90
2825;DHT22;1420;51.324;12.344;2023-08-07T06:33:00;15.90;99.90
2825;DHT22;1420;51.324;12.344;2023-08-07T06:35:27;16.00;99.90
2825;DHT22;1420;51.324;12.344;2023-08-07T06:37:54;16.20;99.90
2825;DHT22;1420;51.324;12.344;2023-08-07T06:40:22;16.20;99.90
2825;DHT22;1420;51.324;12.344;2023-08-07T06:42:49;16.40;99.90
2825;DHT22;1420;51.324;12.344;2023-08-07T06:45:16;16.40;99.90
2825;DHT22;1420;51.324;12.344;2023-08-07T06:47:44;16.80;99.90
2825;DHT22;1420;51.324;12.344;2023-08-07T06:50:12;16.70;99.90
2825;DHT22;1420;51.324;12.344;2023-08-07T06:52:38;17.00;99.90
2825;DHT22;1420;51.324;12.344;2023-08-07T06:55:07;17.50;99.90
2825;DHT22;1420;51.324;12.344;2023-08-07T06:57:34;17.50;99.90
2825;DHT22;1420;51.324;12.344;2023-08-07T07:00:02;17.10;99.90
2825;DHT22;1420;51.324;12.344;2023-08-07T07:02:29;17.20;99.90
2825;DHT22;1420;51.324;12.344;2023-08-07T07:04:56;17.20;99.90
2825;DHT22;1420;51.324;12.344;2023-08-07T07:07:23;17.30;99.90
2825;DHT22;1420;51.324;12.344;2023-08-07T07:09:50;17.40;99.90
2825;DHT22;1420;51.324;12.344;2023-08-07T07:12:18;18.00;99.90
2825;DHT22;1420;51.324;12.344;2023-08-07T07:14:45;18.50;99.90
2825;DHT22;1420;51.324;12.344;2023-08-07T07:17:12;18.40;99.90
2825;DHT22;1420;51.324;12.344;2023-08-07T07:19:39;18.50;99.90
2825;DHT22;1420;51.324;12.344;2023-08-07T07:22:06;18.10;99.90
2825;DHT22;1420;51.324;12.344;2023-08-07T07:24:34;18.40;99.90
2825;DHT22;1420;51.324;12.344;2023-08-07T07:27:01;18.90;99.90
2825;DHT22;1420;51.324;12.344;2023-08-07T07:29:28;18.90;99.90
2825;DHT22;1420;51.324;12.344;2023-08-07T07:31:55;18.50;99.90
2825;DHT22;1420;51.324;12.344;2023-08-07T07:34:22;18.40;99.90
2825;DHT22;1420;51.324;12.344;2023-08-07T07:36:50;18.00;99.90
2825;DHT22;1420;51.324;12.344;2023-08-07T07:39:18;17.70;99.90
2825;DHT22;1420;51.324;12.344;2023-08-07T07:41:46;18.00;99.90
2825;DHT22;1420;51.324;12.344;2023-08-07T07:44:14;18.00;99.90
2825;DHT22;1420;51.324;12.344;2023-08-07T07:46:42;18.00;99.90
2825;DHT22;1420;51.324;12.344;2023-08-07T07:49:09;18.60;99.90
2825;DHT22;1420;51.324;12.344;2023-08-07T07:51:37;18.90;99.90
2825;DHT22;1420;51.324;12.344;2023-08-07T07:54:06;18.60;99.90
2825;DHT22;1420;51.324;12.344;2023-08-07T07:56:33;18.90;99.90
2825;DHT22;1420;51.324;12.344;2023-08-07T07:59:01;19.20;99.90
2825;DHT22;1420;51.324;12.344;2023-08-07T08:01:29;19.30;99.90
2825;DHT22;1420;51.324;12.344;2023-08-07T08:03:57;19.30;99.90
2825;DHT22;1420;51.324;12.344;2023-08-07T08:06:24;18.60;99.90
2825;DHT22;1420;51.324;12.344;2023-08-07T08:08:51;18.90;99.90
2825;DHT22;1420;51.324;12.344;2023-08-07T08:11:18;19.60;99.90
2825;DHT22;1420;51.324;12.344;2023-08-07T08:13:45;19.20;99.90
2825;DHT22;1420;51.324;12.344;2023-08-07T08:16:13;19.10;99.90
2825;DHT22;1420;51.324;12.344;2023-08-07T08:18:40;18.80;99.90
2825;DHT22;1420;51.324;12.344;2023-08-07T08:21:08;19.00;99.90
2825;DHT22;1420;51.324;12.344;2023-08-07T08:23:36;18.90;99.90
2825;DHT22;1420;51.324;12.344;2023-08-07T08:26:03;18.90;99.90
2825;DHT22;1420;51.324;12.344;2023-08-07T08:28:30;18.60;99.90
2825;DHT22;1420;51.324;12.344;2023-08-07T08:30:57;18.60;99.90
2825;DHT22;1420;51.324;12.344;2023-08-07T08:33:25;18.70;99.90
2825;DHT22;1420;51.324;12.344;2023-08-07T08:35:52;18.50;99.90
2825;DHT22;1420;51.324;12.344;2023-08-07T08:38:19;19.10;99.90
2825;DHT22;1420;51.324;12.344;2023-08-07T08:40:46;19.70;99.90
2825;DHT22;1420;51.324;12.344;2023-08-07T08:43:14;19.50;99.90
2825;DHT22;1420;51.324;12.344;2023-08-07T08:45:42;19.40;99.90
2825;DHT22;1420;51.324;12.344;2023-08-07T08:48:09;19.40;99.90
2825;DHT22;1420;51.324;12.344;2023-08-07T08:50:36;19.30;99.90
2825;DHT22;1420;51.324;12.344;2023-08-07T08:53:03;19.30;99.90
2825;DHT22;1420;51.324;12.344;2023-08-07T08:55:30;19.90;99.90
2825;DHT22;1420;51.324;12.344;2023-08-07T08:57:57;19.60;99.90
2825;DHT22;1420;51.324;12.344;2023-08-07T09:00:25;19.50;99.90
2825;DHT22;1420;51.324;12.344;2023-08-07T09:02:53;18.90;99.90
2825;DHT22;1420;51.324;12.344;2023-08-07T09:05:21;19.00;99.90
2825;DHT22;1420;51.324;12.344;2023-08-07T09:07:49;18.80;99.90
2825;DHT22;1420;51.324;12.344;2023-08-07T09:10:18;19.10;99.90
2825;DHT22;1420;51.324;12.344;2023-08-07T09:12:53;19.10;99.90
2825;DHT22;1420;51.324;12.344;2023-08-07T09:15:18;19.00;99.90
2825;DHT22;1420;51.324;12.344;2023-08-07T09:17:45;19.70;99.90
2825;DHT22;1420;51.324;12.344;2023-08-07T09:20:13;19.60;99.90
2825;DHT22;1420;51.324;12.344;2023-08-07T09:22:41;19.90;99.90
2825;DHT22;1420;51.324;12.344;2023-08-07T09:25:09;20.40;99.90
2825;DHT22;1420;51.324;12.344;2023-08-07T09:27:37;20.40;99.90
2825;DHT22;1420;51.324;12.344;2023-08-07T09:30:06;21.00;99.90
2825;DHT22;1420;51.324;12.344;2023-08-07T09:32:36;20.90;99.90
2825;DHT22;1420;51.324;12.344;2023-08-07T09:35:05;21.00;99.90
2825;DHT22;1420;51.324;12.344;2023-08-07T09:37:31;20.90;99.90
2825;DHT22;1420;51.324;12.344;2023-08-07T09:40:00;21.30;99.90
2825;DHT22;1420;51.324;12.344;2023-08-07T09:42:28;21.20;99.90
2825;DHT22;1420;51.324;12.344;2023-08-07T09:44:54;21.30;99.90
2825;DHT22;1420;51.324;12.344;2023-08-07T09:47:21;21.00;99.90
2825;DHT22;1420;51.324;12.344;2023-08-07T09:49:48;20.60;99.90
2825;DHT22;1420;51.324;12.344;2023-08-07T09:52:16;20.60;99.90
2825;DHT22;1420;51.324;12.344;2023-08-07T09:54:44;21.00;99.90
2825;DHT22;1420;51.324;12.344;2023-08-07T09:57:12;20.30;99.90
2825;DHT22;1420;51.324;12.344;2023-08-07T09:59:39;20.30;99.90
2825;DHT22;1420;51.324;12.344;2023-08-07T10:02:06;20.40;99.90
2825;DHT22;1420;51.324;12.344;2023-08-07T10:04:33;20.70;99.90
2825;DHT22;1420;51.324;12.344;2023-08-07T10:07:01;20.00;99.90
2825;DHT22;1420;51.324;12.344;2023-08-07T10:09:29;19.80;99.90
2825;DHT22;1420;51.324;12.344;2023-08-07T10:11:56;19.70;99.90
2825;DHT22;1420;51.324;12.344;2023-08-07T10:14:24;19.50;99.90
2825;DHT22;1420;51.324;12.344;2023-08-07T10:16:51;18.80;99.90
2825;DHT22;1420;51.324;12.344;2023-08-07T10:19:18;18.50;99.90
2825;DHT22;1420;51.324;12.344;2023-08-07T10:21:45;18.60;99.90
2825;DHT22;1420;51.324;12.344;2023-08-07T10:24:12;18.30;99.90
2825;DHT22;1420;51.324;12.344;2023-08-07T10:26:41;18.40;99.90
2825;DHT22;1420;51.324;12.344;2023-08-07T10:29:09;18.10;99.90
2825;DHT22;1420;51.324;12.344;2023-08-07T10:31:34;18.40;99.90
2825;DHT22;1420;51.324;12.344;2023-08-07T10:34:01;18.70;99.90
2825;DHT22;1420;51.324;12.344;2023-08-07T10:36:33;18.50;99.90
2825;DHT22;1420;51.324;12.344;2023-08-07T10:39:07;18.30;99.90
2825;DHT22;1420;51.324;12.344;2023-08-07T10:41:39;18.10;99.90
2825;DHT22;1420;51.324;12.344;2023-08-07T10:44:09;18.00;99.90
2825;DHT22;1420;51.324;12.344;2023-08-07T10:46:46;18.10;99.90
2825;DHT22;1420;51.324;12.344;2023-08-07T10:49:00;18.20;99.90
2825;DHT22;1420;51.324;12.344;2023-08-07T10:51:29;18.40;99.90
2825;DHT22;1420;51.324;12.344;2023-08-07T10:53:59;19.60;99.90
2825;DHT22;1420;51.324;12.344;2023-08-07T10:56:32;19.60;99.90
2825;DHT22;1420;51.324;12.344;2023-08-07T10:59:07;19.50;99.90
2825;DHT22;1420;51.324;12.344;2023-08-07T11:01:40;19.90;99.90
2825;DHT22;1420;51.324;12.344;2023-08-07T11:03:57;19.50;99.90
2825;DHT22;1420;51.324;12.344;2023-08-07T11:06:24;19.60;99.90
2825;DHT22;1420;51.324;12.344;2023-08-07T11:08:52;19.80;99.90
2825;DHT22;1420;51.324;12.344;2023-08-07T11:11:20;19.80;99.90
2825;DHT22;1420;51.324;12.344;2023-08-07T11:13:48;20.00;99.90
2825;DHT22;1420;51.324;12.344;2023-08-07T11:16:15;20.00;99.90
2825;DHT22;1420;51.324;12.344;2023-08-07T11:18:42;20.30;99.90
2825;DHT22;1420;51.324;12.344;2023-08-07T11:21:11;20.00;99.90
2825;DHT22;1420;51.324;12.344;2023-08-07T11:23:38;19.90;99.90
2825;DHT22;1420;51.324;12.344;2023-08-07T11:26:05;20.40;99.90
2825;DHT22;1420;51.324;12.344;2023-08-07T11:28:32;20.30;99.90
2825;DHT22;1420;51.324;12.344;2023-08-07T11:30:59;20.20;99.90
2825;DHT22;1420;51.324;12.344;2023-08-07T11:33:26;20.10;99.90
2825;DHT22;1420;51.324;12.344;2023-08-07T11:35:54;20.10;99.90
2825;DHT22;1420;51.324;12.344;2023-08-07T11:38:31;20.50;99.90
2825;DHT22;1420;51.324;12.344;2023-08-07T11:40:58;20.80;99.90
2825;DHT22;1420;51.324;12.344;2023-08-07T11:43:24;20.80;99.90
2825;DHT22;1420;51.324;12.344;2023-08-07T11:45:52;20.30;99.90
2825;DHT22;1420;51.324;12.344;2023-08-07T11:48:22;20.40;99.90
2825;DHT22;1420;51.324;12.344;2023-08-07T11:50:47;20.40;99.90
2825;DHT22;1420;51.324;12.344;2023-08-07T11:53:14;20.10;99.90
2825;DHT22;1420;51.324;12.344;2023-08-07T11:55:47;20.20;99.90
2825;DHT22;1420;51.324;12.344;2023-08-07T11:58:14;20.40;99.90
2825;DHT22;1420;51.324;12.344;2023-08-07T12:00:43;20.40;99.90
2825;DHT22;1420;51.324;12.344;2023-08-07T12:05:49;20.60;99.90
2825;DHT22;1420;51.324;12.344;2023-08-07T12:08:16;20.60;99.90
2825;DHT22;1420;51.324;12.344;2023-08-07T12:10:43;20.70;99.90
2825;DHT22;1420;51.324;12.344;2023-08-07T12:13:12;20.90;99.90
2825;DHT22;1420;51.324;12.344;2023-08-07T12:15:38;20.70;99.90
2825;DHT22;1420;51.324;12.344;2023-08-07T12:18:07;20.60;99.90
2825;DHT22;1420;51.324;12.344;2023-08-07T12:20:33;20.80;99.90
2825;DHT22;1420;51.324;12.344;2023-08-07T12:23:00;20.80;99.90
2825;DHT22;1420;51.324;12.344;2023-08-07T12:25:27;21.00;99.90
2825;DHT22;1420;51.324;12.344;2023-08-07T12:27:54;21.40;99.90
2825;DHT22;1420;51.324;12.344;2023-08-07T12:30:22;21.10;99.90
2825;DHT22;1420;51.324;12.344;2023-08-07T12:32:50;20.80;99.90
2825;DHT22;1420;51.324;12.344;2023-08-07T12:35:18;20.70;99.90
2825;DHT22;1420;51.324;12.344;2023-08-07T12:37:45;20.50;99.90
2825;DHT22;1420;51.324;12.344;2023-08-07T12:40:12;20.40;99.90
2825;DHT22;1420;51.324;12.344;2023-08-07T12:42:40;20.90;99.90
2825;DHT22;1420;51.324;12.344;2023-08-07T12:45:08;20.90;99.90
2825;DHT22;1420;51.324;12.344;2023-08-07T12:47:35;20.90;99.90
2825;DHT22;1420;51.324;12.344;2023-08-07T12:50:02;20.30;99.90
2825;DHT22;1420;51.324;12.344;2023-08-07T12:52:29;19.90;99.90
2825;DHT22;1420;51.324;12.344;2023-08-07T12:54:57;19.70;99.90
2825;DHT22;1420;51.324;12.344;2023-08-07T12:57:24;19.80;99.90
2825;DHT22;1420;51.324;12.344;2023-08-07T12:59:52;19.90;99.90
2825;DHT22;1420;51.324;12.344;2023-08-07T13:02:19;19.90;99.90
2825;DHT22;1420;51.324;12.344;2023-08-07T13:04:46;19.80;99.90
2825;DHT22;1420;51.324;12.344;2023-08-07T13:07:14;20.00;99.90
2825;DHT22;1420;51.324;12.344;2023-08-07T13:09:41;20.10;99.90
2825;DHT22;1420;51.324;12.344;2023-08-07T13:12:09;20.10;99.90
2825;DHT22;1420;51.324;12.344;2023-08-07T13:14:36;19.90;99.90
2825;DHT22;1420;51.324;12.344;2023-08-07T13:17:03;20.10;99.90
2825;DHT22;1420;51.324;12.344;2023-08-07T13:19:36;20.40;99.90
2825;DHT22;1420;51.324;12.344;2023-08-07T13:22:03;20.50;99.90
2825;DHT22;1420;51.324;12.344;2023-08-07T13:24:31;20.50;99.90
2825;DHT22;1420;51.324;12.344;2023-08-07T13:26:59;20.20;99.90
2825;DHT22;1420;51.324;12.344;2023-08-07T13:29:26;20.10;99.90
2825;DHT22;1420;51.324;12.344;2023-08-07T13:31:53;19.80;99.90
2825;DHT22;1420;51.324;12.344;2023-08-07T13:34:21;19.50;99.90
2825;DHT22;1420;51.324;12.344;2023-08-07T13:36:49;19.60;99.90
2825;DHT22;1420;51.324;12.344;2023-08-07T13:39:15;19.10;99.90
2825;DHT22;1420;51.324;12.344;2023-08-07T13:41:43;18.40;99.90
2825;DHT22;1420;51.324;12.344;2023-08-07T13:44:11;17.80;99.90
2825;DHT22;1420;51.324;12.344;2023-08-07T13:46:39;17.70;99.90
2825;DHT22;1420;51.324;12.344;2023-08-07T13:49:07;17.20;99.90
2825;DHT22;1420;51.324;12.344;2023-08-07T13:51:35;16.90;99.90
2825;DHT22;1420;51.324;12.344;2023-08-07T13:54:03;16.80;99.90
2825;DHT22;1420;51.324;12.344;2023-08-07T13:56:30;16.70;99.90
2825;DHT22;1420;51.324;12.344;2023-08-07T13:58:57;16.70;99.90
2825;DHT22;1420;51.324;12.344;2023-08-07T14:01:24;16.40;99.90
2825;DHT22;1420;51.324;12.344;2023-08-07T14:03:52;16.60;99.90
2825;DHT22;1420;51.324;12.344;2023-08-07T14:06:19;16.60;99.90
2825;DHT22;1420;51.324;12.344;2023-08-07T14:08:46;16.70;99.90
2825;DHT22;1420;51.324;12.344;2023-08-07T14:11:13;17.40;99.90
2825;DHT22;1420;51.324;12.344;2023-08-07T14:13:40;17.60;99.90
2825;DHT22;1420;51.324;12.344;2023-08-07T14:16:08;17.80;99.90
2825;DHT22;1420;51.324;12.344;2023-08-07T14:18:35;17.60;99.90
2825;DHT22;1420;51.324;12.344;2023-08-07T14:21:02;17.40;99.90
2825;DHT22;1420;51.324;12.344;2023-08-07T14:23:29;17.50;99.90
2825;DHT22;1420;51.324;12.344;2023-08-07T14:25:56;17.20;99.90
2825;DHT22;1420;51.324;12.344;2023-08-07T14:28:24;16.60;99.90
2825;DHT22;1420;51.324;12.344;2023-08-07T14:30:51;16.20;99.90
2825;DHT22;1420;51.324;12.344;2023-08-07T14:33:18;16.20;99.90
2825;DHT22;1420;51.324;12.344;2023-08-07T14:35:45;16.10;99.90
2825;DHT22;1420;51.324;12.344;2023-08-07T14:38:12;15.80;99.90
2825;DHT22;1420;51.324;12.344;2023-08-07T14:40:40;15.90;99.90
2825;DHT22;1420;51.324;12.344;2023-08-07T14:43:07;15.80;99.90
2825;DHT22;1420;51.324;12.344;2023-08-07T14:45:34;16.00;99.90
2825;DHT22;1420;51.324;12.344;2023-08-07T14:48:01;16.10;99.90
2825;DHT22;1420;51.324;12.344;2023-08-07T14:50:28;16.30;99.90
2825;DHT22;1420;51.324;12.344;2023-08-07T14:52:56;16.60;99.90
2825;DHT22;1420;51.324;12.344;2023-08-07T14:55:23;16.90;99.90
2825;DHT22;1420;51.324;12.344;2023-08-07T14:57:50;16.80;99.90
2825;DHT22;1420;51.324;12.344;2023-08-07T15:00:17;17.00;99.90
2825;DHT22;1420;51.324;12.344;2023-08-07T15:02:45;17.00;99.90
2825;DHT22;1420;51.324;12.344;2023-08-07T15:05:13;17.30;99.90
2825;DHT22;1420;51.324;12.344;2023-08-07T15:07:39;17.50;99.90
2825;DHT22;1420;51.324;12.344;2023-08-07T15:10:07;17.60;99.90
2825;DHT22;1420;51.324;12.344;2023-08-07T15:12:35;17.80;99.90
2825;DHT22;1420;51.324;12.344;2023-08-07T15:15:03;17.90;99.90
2825;DHT22;1420;51.324;12.344;2023-08-07T15:17:30;17.80;99.90
2825;DHT22;1420;51.324;12.344;2023-08-07T15:19:57;17.90;99.90
2825;DHT22;1420;51.324;12.344;2023-08-07T15:22:24;17.90;99.90
2825;DHT22;1420;51.324;12.344;2023-08-07T15:24:52;17.90;99.90
2825;DHT22;1420;51.324;12.344;2023-08-07T15:27:19;17.80;99.90
2825;DHT22;1420;51.324;12.344;2023-08-07T15:29:46;17.80;99.90
2825;DHT22;1420;51.324;12.344;2023-08-07T15:32:13;17.60;99.90
2825;DHT22;1420;51.324;12.344;2023-08-07T15:34:40;17.50;99.90
2825;DHT22;1420;51.324;12.344;2023-08-07T15:37:08;17.60;99.90
2825;DHT22;1420;51.324;12.344;2023-08-07T15:39:35;17.50;99.90
2825;DHT22;1420;51.324;12.344;2023-08-07T15:42:03;17.30;99.90
2825;DHT22;1420;51.324;12.344;2023-08-07T15:44:30;17.20;99.90
2825;DHT22;1420;51.324;12.344;2023-08-07T15:46:58;17.20;99.90
2825;DHT22;1420;51.324;12.344;2023-08-07T15:49:26;17.30;99.90
2825;DHT22;1420;51.324;12.344;2023-08-07T15:51:53;17.60;99.90
2825;DHT22;1420;51.324;12.344;2023-08-07T15:54:20;17.90;99.90